Home > Products > Valid Products > TAF

000
FTUS45 KPIH 020500
TAFSUN
TAF
KSUN 020520Z 0206/0306 31011KT P6SM SCT200
     FM021900 18011KT P6SM VCSH BKN050 OVC090
     FM030400 30008KT P6SM SCT100
      AMD LTD TO CLD VIS AND WIND TIL 021300=



000
FTUS45 KPIH 020500
TAFIDA
TAF
KIDA 020520Z 0206/0306 23012G18KT P6SM SCT200
     FM020900 31009KT P6SM BKN150
     FM021900 23010G15KT P6SM VCSH BKN050 OVC100
     FM030100 21010KT P6SM BKN110=



000
FTUS45 KPIH 020500
TAFBYI
TAF
KBYI 020520Z 0206/0306 23008KT P6SM SCT200
     FM021800 27010G15KT P6SM SCT070 BKN130
     FM030100 25008KT P6SM SCT140=



000
FTUS45 KPIH 020500
TAFBYI
TAF
KBYI 020520Z 0206/0306 23008KT P6SM SCT200
     FM021800 27010G15KT P6SM SCT070 BKN130
     FM030100 25008KT P6SM SCT140=



000
FTUS45 KPIH 020500
TAFIDA
TAF
KIDA 020520Z 0206/0306 23012G18KT P6SM SCT200
     FM020900 31009KT P6SM BKN150
     FM021900 23010G15KT P6SM VCSH BKN050 OVC100
     FM030100 21010KT P6SM BKN110=



000
FTUS45 KPIH 020500
TAFPIH
TAF
KPIH 020520Z 0206/0306 21008KT P6SM SCT200
     FM021600 23011KT P6SM SCT060 BKN120
     FM021900 27012G22KT P6SM VCSH BKN060 OVC110
     FM030400 23009KT P6SM BKN120=



000
FTUS45 KPIH 020500
TAFSUN
TAF
KSUN 020520Z 0206/0306 31011KT P6SM SCT200
     FM021900 18011KT P6SM VCSH BKN050 OVC090
     FM030400 30008KT P6SM SCT100
      AMD LTD TO CLD VIS AND WIND TIL 021300=



000
FTUS45 KPIH 012300
TAFSUN
TAF
KSUN 012327Z 0200/0224 30010G15KT P6SM VCSH SCT080 SCT180
     FM020200 31011KT P6SM FEW090 SCT200
     FM021900 15008KT P6SM VCSH BKN050 OVC090
      AMD LTD TO CLD VIS AND WIND 0205/0213=



000
FTUS45 KPIH 012300
TAFIDA
TAF
KIDA 012327Z 0200/0224 25012G18KT P6SM VCSH BKN080 BKN200
     FM020300 31009KT P6SM SCT090 SCT200
     FM022000 23010G15KT P6SM VCSH BKN050 OVC100=



000
FTUS45 KPIH 012300
TAFPIH
TAF
KPIH 012327Z 0200/0224 25015G25KT P6SM SCT045 SCT200
     FM020200 21010KT P6SM SCT200
     FM021900 23010G15KT P6SM VCSH BKN060 OVC110=



000
FTUS45 KPIH 012300
TAFBYI
TAF
KBYI 012327Z 0200/0224 27015G25KT P6SM FEW050 SCT200
     FM020200 23010KT P6SM SCT200
     FM021800 27010G15KT P6SM SCT070 BKN130=



000
FTUS45 KPIH 012200 AAA
TAFSUN
TAF AMD
KSUN 012237Z 0123/0218 30010G15KT P6SM VCSH SCT060 BKN120
     FM020200 31011KT P6SM FEW150=



000
FTUS45 KPIH 012000 AAA
TAFIDA
TAF AMD
KIDA 012010Z 0120/0218 22015G25KT P6SM SCT080 BKN100
      TEMPO 0121/0124 3SM -SHSN OVC025
     FM020200 23011KT P6SM BKN035
     FM020600 VRB05KT P6SM SCT040
     FM021300 31009KT P6SM SCT200=



000
FTUS45 KPIH 011700
TAFIDA
TAF
KIDA 011720Z 0118/0218 22015G25KT P6SM SCT080 BKN100
     FM020200 23011KT P6SM BKN035
     FM020600 VRB05KT P6SM SCT040
     FM021300 31009KT P6SM SCT200=



000
FTUS45 KPIH 011700
TAFSUN
TAF
KSUN 011720Z 0118/0218 24011KT P6SM VCSH SCT060 BKN120
     FM020200 31011KT P6SM FEW150=



000
FTUS45 KPIH 011700
TAFPIH
TAF
KPIH 011720Z 0118/0218 25015G25KT P6SM SCT030 BKN050
      TEMPO 0118/0119 BKN025
     FM011900 25015G25KT P6SM SCT040 BKN060
     FM020200 21010KT P6SM SCT200=



000
FTUS45 KPIH 011700
TAFBYI
TAF
KBYI 011720Z 0118/0218 27015G25KT P6SM SCT030 BKN100
     FM020200 23010KT P6SM SCT200
     FM020800 VRB05KT P6SM SCT200
     FM021600 27011KT P6SM BKN120=



000
FTUS45 KPIH 011500 AAA
TAFPIH
TAF AMD
KPIH 011521Z 0115/0212 23020G27KT P6SM SCT020 OVC050
      TEMPO 0115/0118 BKN025
     FM011800 24024G32KT P6SM SCT200
     FM020200 21018KT P6SM SCT200
     FM020600 21011KT P6SM SCT200=



000
FTUS45 KPIH 011500 AAA
TAFPIH
TAF AMD
KPIH 011521Z 0115/0212 23020G27KT P6SM SCT020 OVC050
      TEMPO 0115/0118 BKN025
     FM011800 24024G32KT P6SM SCT200
     FM020200 21018KT P6SM SCT200
     FM020600 21011KT P6SM SCT200=



000
FTUS45 KPIH 011100
TAFBYI
TAF
KBYI 011130Z 0112/0212 25018G26KT P6SM FEW070 SCT200
     FM020200 23012KT P6SM SCT200
     FM020800 VRB05KT P6SM SCT200=



000
FTUS45 KPIH 011100
TAFSUN
TAF
KSUN 011130Z 0112/0212 33006KT P6SM FEW040
     FM011900 24012KT P6SM VCSH SCT060 SCT150
     FM020200 31008KT P6SM FEW150
      AMD LTD TO CLD VIS AND WIND TIL 011300=



000
FTUS45 KPIH 011100
TAFIDA
TAF
KIDA 011130Z 0112/0212 22020G28KT P6SM VCSH SCT035 BKN080
     FM011500 25018G28KT P6SM VCSH SCT030 BKN080
     FM020200 23011KT P6SM BKN035
     FM020600 VRB05KT P6SM SCT040=



000
FTUS45 KPIH 011100
TAFPIH
TAF
KPIH 011130Z 0112/0212 22022G32KT P6SM FEW080
     FM011500 24024G32KT P6SM SCT200
     FM020200 21018KT P6SM SCT200
     FM020600 21011KT P6SM SCT200=



000
FTUS45 KPIH 011000 AAA
TAFBYI
TAF AMD
KBYI 011036Z 0111/0206 27020G28KT P6SM FEW070
     FM011800 27015G25KT P6SM SCT200
     FM020200 23009KT P6SM SCT200=



000
FTUS45 KPIH 010900 AAA
TAFIDA
TAF AMD
KIDA 010956Z 0110/0206 21020G30KT P6SM VCSH SCT035 BKN080
     FM011700 22018G28KT P6SM SCT030 BKN080
     FM020200 20009KT P6SM BKN035=



000
FTUS45 KPIH 010500
TAFSUN
TAF
KSUN 010520Z 0106/0206 30008KT P6SM VCSH BKN040
     FM012000 26015G25KT P6SM SCT040
     FM020200 31008KT P6SM FEW180
      AMD LTD TO CLD VIS AND WIND TIL 011300=



000
FTUS45 KPIH 010500
TAFBYI
TAF
KBYI 010520Z 0106/0206 24020G30KT P6SM BKN060
     FM010800 25015KT P6SM FEW040
     FM011800 27015G25KT P6SM SCT200
     FM020200 23009KT P6SM SCT200=



000
FTUS45 KPIH 010500
TAFPIH
TAF
KPIH 010520Z 0106/0206 23020G30KT 6SM BLDU SCT015
     FM010900 23018KT P6SM SCT030 BKN080
     FM011700 25023G32KT P6SM SCT200
     FM020200 21011KT P6SM SCT200=



000
FTUS45 KPIH 010500
TAFIDA
TAF
KIDA 010520Z 0106/0206 22020G30KT P6SM VCSH SCT035 BKN060
     FM010900 21018KT P6SM VCSH BKN040
     FM011700 22018G28KT P6SM SCT030 BKN080
     FM020200 20009KT P6SM BKN035=



000
FTUS45 KPIH 010500
TAFSUN
TAF
KSUN 010520Z 0106/0206 30008KT P6SM VCSH BKN040
     FM012000 26015G25KT P6SM SCT040
     FM020200 31008KT P6SM FEW180
      AMD LTD TO CLD VIS AND WIND TIL 011300=



000
FTUS45 KPIH 010500
TAFBYI
TAF
KBYI 010520Z 0106/0206 24020G30KT P6SM BKN060
     FM010800 25015KT P6SM FEW040
     FM011800 27015G25KT P6SM SCT200
     FM020200 23009KT P6SM SCT200=



000
FTUS45 KPIH 010500
TAFPIH
TAF
KPIH 010520Z 0106/0206 23020G30KT 6SM BLDU SCT015
     FM010900 23018KT P6SM SCT030 BKN080
     FM011700 25023G32KT P6SM SCT200
     FM020200 21011KT P6SM SCT200=



000
FTUS45 KPIH 010500
TAFIDA
TAF
KIDA 010520Z 0106/0206 22020G30KT P6SM VCSH SCT035 BKN060
     FM010900 21018KT P6SM VCSH BKN040
     FM011700 22018G28KT P6SM SCT030 BKN080
     FM020200 20009KT P6SM BKN035=



000
FTUS45 KPIH 010400 AAB
TAFBYI
TAF AMD
KBYI 010421Z 0104/0124 24017G30KT P6SM BKN080
     FM010900 25015KT P6SM FEW040=



000
FTUS45 KPIH 010100 AAA
TAFBYI
TAF AMD
KBYI 010158Z 0102/0124 27025G35KT 5SM BLDU SCT017 BKN080
     FM010900 25015KT P6SM FEW040=



000
FTUS45 KPIH 010100 AAA
TAFBYI
TAF AMD
KBYI 010158Z 0102/0124 27025G35KT 5SM BLDU SCT017 BKN080
     FM010900 25015KT P6SM FEW040=



000
FTUS45 KPIH 312300
TAFIDA
TAF
KIDA 312323Z 0100/0124 23017G29KT 6SM BLDU BKN120
     FM010600 22013KT P6SM VCSH BKN035
     FM011200 22018KT P6SM SCT030 BKN080=



000
FTUS45 KPIH 312300
TAFSUN
TAF
KSUN 312323Z 0100/0124 27010G18KT P6SM VCSH BKN080
     FM010300 30008KT P6SM VCSH BKN040
     FM012000 26015G25KT P6SM SCT040
      AMD LTD TO CLD VIS AND WIND 0105/0113=



000
FTUS45 KPIH 312300
TAFPIH
TAF
KPIH 312323Z 0100/0124 25020KT 6SM BLDU BKN120
     FM010200 22012KT P6SM BKN060
     FM010500 23020G30KT P6SM VCSH BKN035
     FM011100 23018KT P6SM SCT030 BKN080=



000
FTUS45 KPIH 312300
TAFBYI
TAF
KBYI 312323Z 0100/0124 27012G20KT P6SM BKN100
     FM010300 26024G32KT P6SM SCT040 BKN080
     FM010900 25015KT P6SM FEW040=



000
FTUS45 KPIH 312300
TAFIDA
TAF
KIDA 312323Z 0100/0124 23017G29KT 6SM BLDU BKN120
     FM010600 22013KT P6SM VCSH BKN035
     FM011200 22018KT P6SM SCT030 BKN080=



000
FTUS45 KPIH 312300
TAFBYI
TAF
KBYI 312323Z 0100/0124 27012G20KT P6SM BKN100
     FM010300 26024G32KT P6SM SCT040 BKN080
     FM010900 25015KT P6SM FEW040=



000
FTUS45 KPIH 312300
TAFSUN
TAF
KSUN 312323Z 0100/0124 27010G18KT P6SM VCSH BKN080
     FM010300 30008KT P6SM VCSH BKN040
     FM012000 26015G25KT P6SM SCT040
      AMD LTD TO CLD VIS AND WIND 0105/0113=



000
FTUS45 KPIH 312300
TAFPIH
TAF
KPIH 312323Z 0100/0124 25020KT 6SM BLDU BKN120
     FM010200 22012KT P6SM BKN060
     FM010500 23020G30KT P6SM VCSH BKN035
     FM011100 23018KT P6SM SCT030 BKN080=



000
FTUS45 KPIH 312100 AAA
TAFSUN
TAF AMD
KSUN 312129Z 3121/0118 23010G18KT P6SM VCSH BKN080
     FM010300 33008KT P6SM VCSH BKN040=



000
FTUS45 KPIH 312100 AAA
TAFBYI
TAF AMD
KBYI 312128Z 3121/0118 27011KT P6SM BKN100
     FM010400 27020G30KT P6SM SCT040 BKN080
     FM011200 27015G25KT P6SM FEW040=



000
FTUS45 KPIH 312100 AAA
TAFPIH
TAF AMD
KPIH 312125Z 3121/0118 26020KT 6SM BLDU BKN120
     FM010100 22012KT P6SM BKN060
     FM010400 23020G30KT P6SM VCSH BKN040=



000
FTUS45 KPIH 311700 CCB
TAFSUN
TAF COR
KSUN 311737Z 3118/0118 17010KT P6SM BKN100
     FM312000 23015G25KT P6SM VCSH BKN080
     FM010300 33008KT P6SM VCSH BKN040=



000
FTUS45 KPIH 311700 CCB
TAFSUN
TAF COR
KSUN 311737Z 3118/0118 17010KT P6SM BKN100
     FM312000 23015G25KT P6SM VCSH BKN080
     FM010300 33008KT P6SM VCSH BKN040=



000
FTUS45 KPIH 311700 CCA
TAFSUN
TAF COR
KSUN 311736Z 3118/0118 17010KT P6SM BKN100
     FM312000 23015G25KT P6SM VCSH BKN080
     FM010300 33008KT P6SM VCSH BKN040=



000
FTUS45 KPIH 311700 CCA
TAFSUN
TAF COR
KSUN 311736Z 3118/0118 17010KT P6SM BKN100
     FM312000 23015G25KT P6SM VCSH BKN080
     FM010300 33008KT P6SM VCSH BKN040=



000
FTUS45 KPIH 311700
TAFSUN
TAF
KSUN 311732Z 3118/0118 17010KT P6SM BKN010
     FM312000 23015G25KT P6SM VCSH BKN080
     FM010300 33008KT P6SM VCSH BKN040=



000
FTUS45 KPIH 311700
TAFIDA
TAF
KIDA 311732Z 3118/0118 22012G22KT P6SM SCT120 BKN250
     FM312000 22025G35KT 6SM BLDU BKN120
     FM010400 22012G22KT P6SM VCSH BKN040=



000
FTUS45 KPIH 311700
TAFBYI
TAF
KBYI 311732Z 3118/0118 27012G20KT P6SM BKN250
     FM312000 27018G28KT P6SM BKN100
     FM011200 27015G25KT P6SM FEW040=



000
FTUS45 KPIH 311700
TAFPIH
TAF
KPIH 311732Z 3118/0118 23015G30KT P6SM SCT120 BKN250
     FM312000 24025G35KT 6SM BLDU BKN120
     FM010100 22012KT P6SM BKN060
     FM010400 23020G30KT P6SM VCSH BKN040=



000
FTUS45 KPIH 311700
TAFIDA
TAF
KIDA 311732Z 3118/0118 22012G22KT P6SM SCT120 BKN250
     FM312000 22025G35KT 6SM BLDU BKN120
     FM010400 22012G22KT P6SM VCSH BKN040=



000
FTUS45 KPIH 311700
TAFSUN
TAF
KSUN 311732Z 3118/0118 17010KT P6SM BKN010
     FM312000 23015G25KT P6SM VCSH BKN080
     FM010300 33008KT P6SM VCSH BKN040=



000
FTUS45 KPIH 311700
TAFPIH
TAF
KPIH 311732Z 3118/0118 23015G30KT P6SM SCT120 BKN250
     FM312000 24025G35KT 6SM BLDU BKN120
     FM010100 22012KT P6SM BKN060
     FM010400 23020G30KT P6SM VCSH BKN040=



000
FTUS45 KPIH 311700
TAFBYI
TAF
KBYI 311732Z 3118/0118 27012G20KT P6SM BKN250
     FM312000 27018G28KT P6SM BKN100
     FM011200 27015G25KT P6SM FEW040=



000
FTUS45 KPIH 311200 CCA
TAFPIH
TAF COR
KPIH 311211Z 3112/0112 VRB06KT P6SM BKN250
     FM311700 22012G22KT P6SM BKN200
     FM312000 24025G35KT 5SM BLDU BKN150
     FM010400 22015G25KT P6SM BKN100=



000
FTUS45 KPIH 311200 CCA
TAFPIH
TAF COR
KPIH 311211Z 3112/0112 VRB06KT P6SM BKN250
     FM311700 22012G22KT P6SM BKN200
     FM312000 24025G35KT 5SM BLDU BKN150
     FM010400 22015G25KT P6SM BKN100=



000
FTUS45 KPIH 311100
TAFIDA
TAF
KIDA 311120Z 3112/0112 33006KT P6SM BKN250
     FM311700 22012G22KT P6SM BKN200
     FM312000 22025G35KT 5SM BLDU BKN150
     FM010400 22015G25KT P6SM BKN100=



000
FTUS45 KPIH 311100
TAFPIH
TAF
KPIH 311120Z 3112/0112 33010KT P6SM BKN250
     FM311700 22012G22KT P6SM BKN200
     FM312000 24025G35KT 5SM BLDU BKN150
     FM010400 22015G25KT P6SM BKN100=



000
FTUS45 KPIH 311100
TAFSUN
TAF
KSUN 311120Z 3112/0112 31010KT P6SM BKN200
     FM311800 17008KT P6SM BKN100
     FM312000 23015G25KT P6SM VCSH BKN100
     FM010300 33008KT P6SM VCSH BKN100
      AMD LTD TO CLD VIS AND WIND TIL 311300=



000
FTUS45 KPIH 311100
TAFBYI
TAF
KBYI 311120Z 3112/0112 15006KT P6SM BKN250
     FM311700 27010G20KT P6SM BKN200
     FM312000 26018G28KT P6SM BKN100=



000
FTUS45 KPIH 310500
TAFIDA
TAF
KIDA 310520Z 3106/0106 VRB05KT P6SM SCT250
     FM311700 21012G23KT P6SM BKN200
     FM312000 23023G33KT P6SM BKN150=



000
FTUS45 KPIH 310500
TAFSUN
TAF
KSUN 310520Z 3106/0106 31011KT P6SM BKN200
     FM311900 23015G25KT P6SM BKN100
      AMD LTD TO CLD VIS AND WIND TIL 311300=



000
FTUS45 KPIH 310500
TAFSUN
TAF
KSUN 310520Z 3106/0106 31011KT P6SM BKN200
     FM311900 23015G25KT P6SM BKN100
      AMD LTD TO CLD VIS AND WIND TIL 311300=



000
FTUS45 KPIH 310500
TAFPIH
TAF
KPIH 310520Z 3106/0106 VRB06KT P6SM SCT250
     FM311700 22015G25KT P6SM BKN200
     FM312000 25025G35KT P6SM BKN150=



000
FTUS45 KPIH 310500
TAFPIH
TAF
KPIH 310520Z 3106/0106 VRB06KT P6SM SCT250
     FM311700 22015G25KT P6SM BKN200
     FM312000 25025G35KT P6SM BKN150=



000
FTUS45 KPIH 310500
TAFIDA
TAF
KIDA 310520Z 3106/0106 VRB05KT P6SM SCT250
     FM311700 21012G23KT P6SM BKN200
     FM312000 23023G33KT P6SM BKN150=



000
FTUS45 KPIH 310500
TAFBYI
TAF
KBYI 310520Z 3106/0106 VRB06KT P6SM SCT250
     FM311700 27010G20KT P6SM BKN200
     FM312000 27018G28KT P6SM BKN150=



000
FTUS45 KPIH 310500
TAFBYI
TAF
KBYI 310520Z 3106/0106 VRB06KT P6SM SCT250
     FM311700 27010G20KT P6SM BKN200
     FM312000 27018G28KT P6SM BKN150=



000
FTUS45 KPIH 302300
TAFBYI
TAF
KBYI 302321Z 3100/3124 VRB06KT P6SM SCT250
     FM311700 27010G20KT P6SM BKN200
     FM312000 27018G28KT P6SM BKN150=



000
FTUS45 KPIH 302300
TAFIDA
TAF
KIDA 302321Z 3100/3124 21009KT P6SM SKC
     FM310300 VRB05KT P6SM SCT250
     FM311700 21012G23KT P6SM BKN200
     FM312000 23023G33KT P6SM BKN150=



000
FTUS45 KPIH 302300
TAFSUN
TAF
KSUN 302321Z 3100/3124 14008KT P6SM SCT250
     FM310400 31011KT P6SM BKN200
     FM311900 23015G25KT P6SM BKN100
      AMD LTD TO CLD VIS AND WIND 3105/3113=



000
FTUS45 KPIH 302300
TAFPIH
TAF
KPIH 302321Z 3100/3124 26008KT P6SM SKC
     FM310300 VRB04KT P6SM SCT250
     FM311700 22015G25KT P6SM BKN200
     FM312000 25025G35KT P6SM BKN150=



000
FTUS45 KPIH 302300
TAFBYI
TAF
KBYI 302321Z 3100/3124 VRB06KT P6SM SCT250
     FM311700 27010G20KT P6SM BKN200
     FM312000 27018G28KT P6SM BKN150=



000
FTUS45 KPIH 302300
TAFIDA
TAF
KIDA 302321Z 3100/3124 21009KT P6SM SKC
     FM310300 VRB05KT P6SM SCT250
     FM311700 21012G23KT P6SM BKN200
     FM312000 23023G33KT P6SM BKN150=



000
FTUS45 KPIH 302300
TAFSUN
TAF
KSUN 302321Z 3100/3124 14008KT P6SM SCT250
     FM310400 31011KT P6SM BKN200
     FM311900 23015G25KT P6SM BKN100
      AMD LTD TO CLD VIS AND WIND 3105/3113=



000
FTUS45 KPIH 302300
TAFPIH
TAF
KPIH 302321Z 3100/3124 26008KT P6SM SKC
     FM310300 VRB04KT P6SM SCT250
     FM311700 22015G25KT P6SM BKN200
     FM312000 25025G35KT P6SM BKN150=



000
FTUS45 KPIH 301700
TAFSUN
TAF
KSUN 301720Z 3018/3118 14008KT P6SM SCT250
     FM310400 31011KT P6SM BKN200=



000
FTUS45 KPIH 301700
TAFBYI
TAF
KBYI 301720Z 3018/3118 VRB06KT P6SM SCT250
     FM310800 19008KT P6SM BKN200
     FM311700 27010G20KT P6SM BKN200=



000
FTUS45 KPIH 301700
TAFPIH
TAF
KPIH 301720Z 3018/3118 24010KT P6SM SKC
     FM310300 VRB04KT P6SM SCT250
     FM311700 22015G25KT P6SM BKN200=



000
FTUS45 KPIH 301700
TAFSUN
TAF
KSUN 301720Z 3018/3118 14008KT P6SM SCT250
     FM310400 31011KT P6SM BKN200=



000
FTUS45 KPIH 301700
TAFBYI
TAF
KBYI 301720Z 3018/3118 VRB06KT P6SM SCT250
     FM310800 19008KT P6SM BKN200
     FM311700 27010G20KT P6SM BKN200=



000
FTUS45 KPIH 301700
TAFPIH
TAF
KPIH 301720Z 3018/3118 24010KT P6SM SKC
     FM310300 VRB04KT P6SM SCT250
     FM311700 22015G25KT P6SM BKN200=



000
FTUS45 KPIH 301700
TAFIDA
TAF
KIDA 301720Z 3018/3118 21011KT P6SM SKC
     FM310300 VRB05KT P6SM SCT250
     FM311700 21012G23KT P6SM BKN200=



000
FTUS45 KPIH 301700
TAFIDA
TAF
KIDA 301720Z 3018/3118 21011KT P6SM SKC
     FM310300 VRB05KT P6SM SCT250
     FM311700 21012G23KT P6SM BKN200=



000
FTUS45 KPIH 301100
TAFBYI
TAF
KBYI 301120Z 3012/3112 VRB06KT P6SM SCT250
     FM310800 19008KT P6SM BKN200=



000
FTUS45 KPIH 301100
TAFBYI
TAF
KBYI 301120Z 3012/3112 VRB06KT P6SM SCT250
     FM310800 19008KT P6SM BKN200=



000
FTUS45 KPIH 301100
TAFPIH
TAF
KPIH 301120Z 3012/3112 20008KT P6SM SCT250
     FM302100 25011KT P6SM SCT250
     FM310200 VRB04KT P6SM BKN250=



000
FTUS45 KPIH 301100
TAFPIH
TAF
KPIH 301120Z 3012/3112 20008KT P6SM SCT250
     FM302100 25011KT P6SM SCT250
     FM310200 VRB04KT P6SM BKN250=



000
FTUS45 KPIH 301100
TAFIDA
TAF
KIDA 301120Z 3012/3112 21007KT P6SM SCT250
     FM302000 22011KT P6SM SCT250
     FM310200 VRB05KT P6SM BKN250=



000
FTUS45 KPIH 301100
TAFSUN
TAF
KSUN 301120Z 3012/3112 31011KT P6SM SCT250
     FM301800 14008KT P6SM SCT250
     FM310400 31008KT P6SM BKN200
      AMD LTD TO CLD VIS AND WIND TIL 301300=



000
FTUS45 KPIH 301100
TAFIDA
TAF
KIDA 301120Z 3012/3112 21007KT P6SM SCT250
     FM302000 22011KT P6SM SCT250
     FM310200 VRB05KT P6SM BKN250=



000
FTUS45 KPIH 301100
TAFSUN
TAF
KSUN 301120Z 3012/3112 31011KT P6SM SCT250
     FM301800 14008KT P6SM SCT250
     FM310400 31008KT P6SM BKN200
      AMD LTD TO CLD VIS AND WIND TIL 301300=



    US Dept of Commerce
    National Oceanic and Atmospheric Administration
    National Weather Service
    1325 East West Highway
    Silver Spring, MD 20910
    Page Author: NWS Internet Services Team
Disclaimer
Information Quality
Credits
Glossary
Privacy Policy
Freedom of Information Act (FOIA)
About Us
Career Opportunities